createdAt,value
2023-02-18T00:02:03.525Z,100269.80
2023-02-18T00:04:33.017Z,100268.80
2023-02-18T00:07:02.316Z,100261.63
2023-02-18T00:09:30.910Z,100259.58
2023-02-18T00:11:59.798Z,100264.13
2023-02-18T00:14:28.953Z,100265.98
2023-02-18T00:16:57.994Z,100258.63
2023-02-18T00:19:26.664Z,100249.54
2023-02-18T00:21:55.607Z,100247.26
2023-02-18T00:24:24.664Z,100243.10
2023-02-18T00:26:54.010Z,100230.81
2023-02-18T00:29:22.759Z,100228.83
2023-02-18T00:31:51.633Z,100225.21
2023-02-18T00:34:20.499Z,100224.95
2023-02-18T00:36:49.343Z,100221.35
2023-02-18T00:39:18.329Z,100225.08
2023-02-18T00:41:47.149Z,100222.29
2023-02-18T00:44:15.995Z,100224.25
2023-02-18T00:46:45.029Z,100225.98
2023-02-18T00:49:13.639Z,100224.24
2023-02-18T00:51:42.610Z,100224.24
2023-02-18T00:54:11.421Z,100224.23
2023-02-18T00:56:39.967Z,100222.05
2023-02-18T00:59:08.867Z,100224.42
2023-02-18T01:01:37.564Z,100226.20
2023-02-18T01:04:06.794Z,100232.48
2023-02-18T01:06:35.617Z,100242.58
2023-02-18T01:09:06.233Z,100240.13
2023-02-18T01:11:35.338Z,100238.88
2023-02-18T01:14:04.263Z,100233.23
2023-02-18T01:16:33.397Z,100227.43
2023-02-18T01:19:02.372Z,100226.28
2023-02-18T01:21:31.215Z,100224.34
2023-02-18T01:24:00.160Z,100222.89
2023-02-18T01:26:28.935Z,100220.47
2023-02-18T01:28:57.852Z,100222.73
2023-02-18T01:31:26.549Z,100222.98
2023-02-18T01:33:55.512Z,100220.27
2023-02-18T01:36:24.545Z,100210.38
2023-02-18T01:38:54.334Z,100207.50
2023-02-18T01:41:23.543Z,100200.91
2023-02-18T01:44:16.758Z,100199.39
2023-02-18T01:46:46.130Z,100193.23
2023-02-18T01:49:21.460Z,100189.13
2023-02-18T01:51:57.949Z,100187.20
2023-02-18T01:54:32.269Z,100187.82
2023-02-18T01:57:08.078Z,100185.80
2023-02-18T01:59:50.724Z,100184.52
2023-02-18T02:02:22.934Z,100182.05
2023-02-18T02:04:52.792Z,100177.84
2023-02-18T02:07:24.045Z,100176.73
2023-02-18T02:09:56.821Z,100171.32
2023-02-18T02:12:55.546Z,100169.09
2023-02-18T02:15:50.367Z,100169.65
2023-02-18T02:18:27.532Z,100173.83
2023-02-18T02:21:27.080Z,100176.83
2023-02-18T02:24:20.227Z,100180.58
2023-02-18T02:27:07.323Z,100169.17
2023-02-18T02:30:24.470Z,100169.11
2023-02-18T02:33:25.588Z,100166.38
2023-02-18T02:36:17.258Z,100168.79
2023-02-18T02:39:27.851Z,100170.88
2023-02-18T02:42:18.830Z,100169.90
2023-02-18T02:44:57.965Z,100172.31
2023-02-18T02:47:33.166Z,100172.87
2023-02-18T02:50:09.558Z,100169.95
2023-02-18T02:52:45.460Z,100164.52
2023-02-18T02:55:15.495Z,100164.80
2023-02-18T02:57:46.818Z,100162.70
2023-02-18T03:00:19.108Z,100163.69
2023-02-18T03:03:07.096Z,100159.13
2023-02-18T03:05:45.111Z,100158.64
2023-02-18T03:08:39.829Z,100164.88
2023-02-18T03:11:15.267Z,100162.98
2023-02-18T03:14:27.748Z,100163.85
2023-02-18T03:17:13.276Z,100166.95
2023-02-18T03:19:51.025Z,100159.70
2023-02-18T03:22:19.794Z,100159.58
2023-02-18T03:24:52.126Z,100159.07
2023-02-18T03:27:23.986Z,100153.79
2023-02-18T03:30:16.251Z,100160.39
2023-02-18T03:32:48.075Z,100158.30
2023-02-18T03:35:18.974Z,100157.52
2023-02-18T03:38:03.333Z,100157.64
2023-02-18T03:40:32.825Z,100153.68
2023-02-18T03:43:01.966Z,100157.13
2023-02-18T03:45:31.281Z,100150.80
2023-02-18T03:48:00.221Z,100141.45
2023-02-18T03:50:29.049Z,100143.23
2023-02-18T03:52:57.945Z,100142.99
2023-02-18T03:55:27.034Z,100144.63
2023-02-18T03:57:56.429Z,100146.23
2023-02-18T04:00:25.621Z,100141.64
2023-02-18T04:02:54.808Z,100139.04
2023-02-18T04:05:24.513Z,100137.34
2023-02-18T04:07:53.338Z,100136.15
2023-02-18T04:10:23.365Z,100134.79
2023-02-18T04:12:52.362Z,100135.64
2023-02-18T04:15:21.290Z,100134.73
2023-02-18T04:17:50.650Z,100128.90
2023-02-18T04:20:20.446Z,100132.19
2023-02-18T04:22:49.579Z,100130.34
2023-02-18T04:25:18.513Z,100128.58
2023-02-18T04:27:47.428Z,100132.25
2023-02-18T04:30:18.784Z,100129.57
2023-02-18T04:32:47.726Z,100129.46
2023-02-18T04:35:16.806Z,100127.92
2023-02-18T04:37:45.490Z,100133.00
2023-02-18T04:40:15.440Z,100125.09
2023-02-18T04:42:44.149Z,100127.89
2023-02-18T04:45:13.210Z,100129.21
2023-02-18T04:47:41.937Z,100133.50
2023-02-18T04:50:11.990Z,100137.73
2023-02-18T04:52:40.847Z,100135.86
2023-02-18T04:55:09.766Z,100140.16
2023-02-18T04:57:38.902Z,100142.18
2023-02-18T05:00:11.650Z,100140.10
2023-02-18T05:02:40.465Z,100145.05
2023-02-18T05:05:09.975Z,100146.81
2023-02-18T05:07:39.267Z,100141.54
2023-02-18T05:10:09.484Z,100137.76
2023-02-18T05:12:38.301Z,100136.45
2023-02-18T05:15:08.144Z,100141.85
2023-02-18T05:17:36.673Z,100139.17
2023-02-18T05:20:08.830Z,100136.36
2023-02-18T05:22:38.960Z,100143.88
2023-02-18T05:25:08.338Z,100150.27
2023-02-18T05:27:37.289Z,100144.06
2023-02-18T05:30:07.258Z,100138.23
2023-02-18T05:32:36.400Z,100141.27
2023-02-18T05:35:06.252Z,100141.17
2023-02-18T05:37:35.581Z,100137.96
2023-02-18T05:40:05.520Z,100139.63
2023-02-18T05:42:34.235Z,100139.94
2023-02-18T05:45:03.411Z,100141.37
2023-02-18T05:47:32.433Z,100144.08
2023-02-18T05:50:01.454Z,100143.09
2023-02-18T05:52:30.195Z,100138.38
2023-02-18T05:54:59.348Z,100141.67
2023-02-18T05:57:28.822Z,100139.63
2023-02-18T06:00:00.094Z,100134.38
2023-02-18T06:02:29.344Z,100134.55
2023-02-18T06:04:57.978Z,100137.48
2023-02-18T06:07:26.942Z,100133.25
2023-02-18T06:09:55.894Z,100133.61
2023-02-18T06:12:25.354Z,100138.92
2023-02-18T06:14:54.132Z,100144.90
2023-02-18T06:17:23.108Z,100146.59
2023-02-18T06:19:52.323Z,100142.83
2023-02-18T06:22:21.114Z,100140.66
2023-02-18T06:24:50.409Z,100142.80
2023-02-18T06:27:19.580Z,100143.97
2023-02-18T06:29:48.557Z,100144.33
2023-02-18T06:32:17.417Z,100148.39
2023-02-18T06:34:46.499Z,100149.59
2023-02-18T06:37:16.459Z,100153.36
2023-02-18T06:39:45.455Z,100155.21
2023-02-18T06:42:14.521Z,100154.65
2023-02-18T06:44:43.254Z,100153.98
2023-02-18T06:47:12.105Z,100158.38
2023-02-18T06:49:41.401Z,100157.73
2023-02-18T06:52:10.304Z,100160.54
2023-02-18T06:54:39.635Z,100163.45
2023-02-18T06:57:08.460Z,100164.54
2023-02-18T06:59:37.850Z,100162.02
2023-02-18T07:02:06.976Z,100165.19
2023-02-18T07:04:35.988Z,100168.55
2023-02-18T07:07:05.003Z,100179.65
2023-02-18T07:09:34.213Z,100175.88
2023-02-18T07:12:03.350Z,100174.45
2023-02-18T07:14:32.688Z,100173.14
2023-02-18T07:17:01.723Z,100181.46
2023-02-18T07:19:30.785Z,100181.95
2023-02-18T07:21:59.519Z,100180.20
2023-02-18T07:24:28.318Z,100176.55
2023-02-18T07:26:57.640Z,100178.66
2023-02-18T07:29:26.582Z,100180.40
2023-02-18T07:31:55.740Z,100178.67
2023-02-18T07:34:24.881Z,100176.39
2023-02-18T07:36:53.734Z,100180.53
2023-02-18T07:39:22.455Z,100182.89
2023-02-18T07:41:51.473Z,100186.89
2023-02-18T07:44:20.339Z,100186.38
2023-02-18T07:46:49.481Z,100183.44
2023-02-18T07:49:18.956Z,100185.39
2023-02-18T07:51:49.735Z,100184.80
2023-02-18T07:54:18.990Z,100188.70
2023-02-18T07:56:48.404Z,100191.77
2023-02-18T07:59:17.761Z,100190.20
2023-02-18T08:01:47.852Z,100188.96
2023-02-18T08:04:17.044Z,100188.48
2023-02-18T08:06:49.141Z,100190.17
2023-02-18T08:09:18.653Z,100189.73
2023-02-18T08:11:47.555Z,100188.23
2023-02-18T08:14:17.947Z,100187.79
2023-02-18T08:16:47.521Z,100190.27
2023-02-18T08:19:16.701Z,100188.76
2023-02-18T08:21:46.682Z,100189.55
2023-02-18T08:24:15.615Z,100186.42
2023-02-18T08:26:59.392Z,100188.89
2023-02-18T08:29:30.238Z,100194.48
2023-02-18T08:32:00.083Z,100197.02
2023-02-18T08:34:30.340Z,100190.91
2023-02-18T08:36:59.864Z,100190.00
2023-02-18T08:39:29.036Z,100191.36
2023-02-18T08:41:57.820Z,100187.40
2023-02-18T08:44:28.002Z,100187.57
2023-02-18T08:46:57.489Z,100187.45
2023-02-18T08:49:26.469Z,100186.23
2023-02-18T08:51:56.014Z,100183.58
2023-02-18T08:54:25.371Z,100181.14
2023-02-18T08:56:58.418Z,100185.46
2023-02-18T08:59:28.420Z,100186.95
2023-02-18T09:01:57.870Z,100189.08
2023-02-18T09:04:27.343Z,100191.25
2023-02-18T09:06:57.491Z,100197.55
2023-02-18T09:09:26.670Z,100197.01
2023-02-18T09:11:56.582Z,100194.77
2023-02-18T09:14:25.580Z,100196.38
2023-02-18T09:16:55.205Z,100196.31
2023-02-18T09:19:25.311Z,100191.98
2023-02-18T09:21:54.345Z,100195.59
2023-02-18T09:24:25.730Z,100192.66
2023-02-18T09:26:56.098Z,100190.71
2023-02-18T09:29:25.286Z,100186.59
2023-02-18T09:31:54.622Z,100184.72
2023-02-18T09:34:23.846Z,100189.90
2023-02-18T09:36:53.254Z,100189.48
2023-02-18T09:39:22.563Z,100187.81
2023-02-18T09:41:58.523Z,100190.55
2023-02-18T09:44:45.819Z,100189.55
2023-02-18T09:47:17.468Z,100187.72
2023-02-18T09:49:55.397Z,100189.64
2023-02-18T09:52:34.425Z,100185.11
2023-02-18T09:55:21.344Z,100183.67
2023-02-18T09:57:54.116Z,100186.21
2023-02-18T10:00:29.364Z,100182.55
2023-02-18T10:03:20.540Z,100185.94
2023-02-18T10:05:58.509Z,100187.52
2023-02-18T10:08:37.487Z,100184.89
2023-02-18T10:11:17.404Z,100186.77
2023-02-18T10:13:46.994Z,100186.83
2023-02-18T10:16:19.644Z,100184.52
2023-02-18T10:18:54.855Z,100180.89
2023-02-18T10:21:37.352Z,100175.11
2023-02-18T10:24:29.655Z,100176.53
2023-02-18T10:27:01.146Z,100173.75
2023-02-18T10:29:32.967Z,100173.18
2023-02-18T10:32:21.308Z,100167.60
2023-02-18T10:35:18.432Z,100166.27
2023-02-18T10:38:03.540Z,100169.98
2023-02-18T10:41:06.404Z,100173.30
2023-02-18T10:43:55.678Z,100173.55
2023-02-18T10:46:58.042Z,100174.98
2023-02-18T10:49:45.760Z,100168.63
2023-02-18T10:52:17.998Z,100163.20
2023-02-18T10:54:59.225Z,100159.86
2023-02-18T10:57:28.764Z,100158.55
2023-02-18T11:00:02.444Z,100162.02
2023-02-18T11:02:33.436Z,100157.69
2023-02-18T11:05:17.284Z,100153.91
2023-02-18T11:07:53.355Z,100149.50
2023-02-18T11:10:31.685Z,100145.67
2023-02-18T11:13:08.392Z,100143.61
2023-02-18T11:15:38.504Z,100140.98
2023-02-18T11:18:41.199Z,100137.45
2023-02-18T11:21:27.575Z,100133.39
2023-02-18T11:23:58.620Z,100129.80
2023-02-18T11:26:33.962Z,100124.75
2023-02-18T11:29:25.054Z,100122.33
2023-02-18T11:31:57.831Z,100123.52
2023-02-18T11:34:32.386Z,100111.54
2023-02-18T11:37:19.175Z,100107.91
2023-02-18T11:39:52.563Z,100103.14
2023-02-18T11:42:25.391Z,100098.77
2023-02-18T11:44:58.196Z,100096.65
2023-02-18T11:47:36.148Z,100094.77
2023-02-18T11:50:11.835Z,100090.15
2023-02-18T11:52:52.015Z,100091.83
2023-02-18T11:55:25.357Z,100084.99
2023-02-18T11:57:59.896Z,100081.98
2023-02-18T12:00:43.357Z,100076.08
2023-02-18T12:03:15.286Z,100070.72
2023-02-18T12:05:46.431Z,100070.80
2023-02-18T12:08:25.975Z,100068.09
2023-02-18T12:11:07.710Z,100068.07
2023-02-18T12:13:54.322Z,100062.47
2023-02-18T12:16:23.894Z,100058.73
2023-02-18T12:19:19.764Z,100054.80
2023-02-18T12:22:13.821Z,100053.90
2023-02-18T12:25:14.714Z,100053.88
2023-02-18T12:27:49.393Z,100048.55
2023-02-18T12:30:53.087Z,100043.88
2023-02-18T12:33:36.032Z,100040.27
2023-02-18T12:36:23.462Z,100042.50
2023-02-18T12:39:18.895Z,100039.42
2023-02-18T12:42:23.168Z,100034.21
2023-02-18T12:45:16.511Z,100036.39
2023-02-18T12:48:04.368Z,100035.89
2023-02-18T12:50:36.210Z,100029.89
2023-02-18T12:53:59.647Z,100032.33
2023-02-18T12:56:59.180Z,100025.31
2023-02-18T12:59:54.619Z,100018.52
2023-02-18T13:02:38.775Z,100015.48
2023-02-18T13:05:23.681Z,100010.09
2023-02-18T13:08:37.708Z,100007.88
2023-02-18T13:11:55.066Z,100001.48
2023-02-18T13:14:32.563Z,100001.18
2023-02-18T13:17:06.105Z,99995.39
2023-02-18T13:19:47.102Z,99994.83
2023-02-18T13:22:19.185Z,99990.46
2023-02-18T13:24:50.702Z,99992.06
2023-02-18T13:27:49.144Z,99990.98
2023-02-18T13:30:18.833Z,99987.81
2023-02-18T13:32:54.427Z,99986.96
2023-02-18T13:35:46.952Z,99983.59
2023-02-18T13:38:41.087Z,99980.34
2023-02-18T13:41:10.570Z,99979.10
2023-02-18T13:43:40.451Z,99970.98
2023-02-18T13:46:15.427Z,99970.10
2023-02-18T13:49:16.249Z,99969.56
2023-02-18T13:51:51.991Z,99970.81
2023-02-18T13:54:45.332Z,99962.98
2023-02-18T13:57:18.048Z,99966.31
2023-02-18T13:59:58.165Z,99963.87
2023-02-18T14:02:27.601Z,99958.79
2023-02-18T14:04:59.249Z,99956.52
2023-02-18T14:07:39.954Z,99953.48
2023-02-18T14:10:17.704Z,99951.23
2023-02-18T14:12:59.262Z,99951.30
2023-02-18T14:15:29.004Z,99949.91
2023-02-18T14:18:17.037Z,99949.02
2023-02-18T14:20:53.345Z,99946.89
2023-02-18T14:23:23.025Z,99945.05
2023-02-18T14:26:05.374Z,99943.10
2023-02-18T14:28:34.752Z,99938.86
2023-02-18T14:31:13.745Z,99934.42
2023-02-18T14:34:06.901Z,99933.92
2023-02-18T14:36:47.888Z,99935.85
2023-02-18T14:39:26.068Z,99933.02
2023-02-18T14:42:25.731Z,99932.34
2023-02-18T14:45:32.006Z,99932.56
2023-02-18T14:48:20.514Z,99930.42
2023-02-18T14:50:51.170Z,99929.65
2023-02-18T14:53:24.292Z,99930.00
2023-02-18T14:55:59.141Z,99927.16
2023-02-18T14:58:39.017Z,99927.13
2023-02-18T15:01:19.747Z,99928.46
2023-02-18T15:03:55.004Z,99929.08
2023-02-18T15:06:31.293Z,99930.69
2023-02-18T15:09:02.314Z,99930.05
2023-02-18T15:11:41.744Z,99929.60
2023-02-18T15:14:44.002Z,99932.86
2023-02-18T15:17:32.349Z,99934.55
2023-02-18T15:20:07.107Z,99935.33
2023-02-18T15:22:36.449Z,99938.01
2023-02-18T15:25:05.995Z,99934.98
2023-02-18T15:27:44.941Z,99931.55
2023-02-18T15:30:19.683Z,99929.50
2023-02-18T15:32:54.911Z,99934.20
2023-02-18T15:35:30.331Z,99929.09
2023-02-18T15:38:02.123Z,99925.48
2023-02-18T15:40:34.797Z,99925.41
2023-02-18T15:43:07.118Z,99925.11
2023-02-18T15:45:42.429Z,99925.67
2023-02-18T15:48:36.463Z,99925.05
2023-02-18T15:51:16.962Z,99926.52
2023-02-18T15:53:50.792Z,99925.98
2023-02-18T15:56:40.986Z,99927.70
2023-02-18T15:59:19.488Z,99925.45
2023-02-18T16:01:51.705Z,99926.12
2023-02-18T16:04:22.721Z,99922.17
2023-02-18T16:06:54.502Z,99921.54
2023-02-18T16:09:27.103Z,99923.39
2023-02-18T16:12:02.692Z,99923.17
2023-02-18T16:14:43.231Z,99924.66
2023-02-18T16:17:22.641Z,99922.96
2023-02-18T16:20:03.947Z,99926.24
2023-02-18T16:22:35.911Z,99923.70
2023-02-18T16:25:08.202Z,99925.21
2023-02-18T16:27:48.739Z,99924.70
2023-02-18T16:30:27.544Z,99918.08
2023-02-18T16:32:58.207Z,99921.84
2023-02-18T16:35:32.812Z,99919.02
2023-02-18T16:38:03.778Z,99920.09
2023-02-18T16:40:34.488Z,99920.58
2023-02-18T16:43:15.929Z,99918.48
2023-02-18T16:45:49.787Z,99918.66
2023-02-18T16:48:25.546Z,99919.65
2023-02-18T16:50:55.041Z,99921.46
2023-02-18T16:53:24.130Z,99923.16
2023-02-18T16:55:52.917Z,99924.70
2023-02-18T16:58:21.923Z,99924.48
2023-02-18T17:00:53.213Z,99930.23
2023-02-18T17:03:22.761Z,99926.92
2023-02-18T17:05:52.103Z,99932.05
2023-02-18T17:08:23.555Z,99935.65
2023-02-18T17:10:56.397Z,99935.61
2023-02-18T17:13:28.268Z,99939.37
2023-02-18T17:15:59.570Z,99939.75
2023-02-18T17:18:29.331Z,99943.64
2023-02-18T17:20:58.905Z,99942.06
2023-02-18T17:23:29.245Z,99946.17
2023-02-18T17:25:58.914Z,99942.17
2023-02-18T17:28:28.737Z,99945.38
2023-02-18T17:30:59.512Z,99946.05
2023-02-18T17:33:28.973Z,99944.97
2023-02-18T17:35:58.780Z,99948.29
2023-02-18T17:38:28.277Z,99946.48
2023-02-18T17:40:57.447Z,99944.69
2023-02-18T17:43:26.841Z,99946.11
2023-02-18T17:45:58.922Z,99946.63
2023-02-18T17:48:29.172Z,99946.00
2023-02-18T17:50:58.963Z,99948.75
2023-02-18T17:53:28.941Z,99952.96
2023-02-18T17:55:57.865Z,99946.72
2023-02-18T17:58:27.110Z,99946.22
2023-02-18T18:00:58.315Z,99944.23
2023-02-18T18:03:27.740Z,99945.94
2023-02-18T18:05:58.179Z,99946.58
2023-02-18T18:08:27.477Z,99945.32
2023-02-18T18:11:00.143Z,99944.35
2023-02-18T18:13:35.245Z,99940.05
2023-02-18T18:16:05.450Z,99940.20
2023-02-18T18:18:34.679Z,99943.87
2023-02-18T18:21:05.190Z,99944.15
2023-02-18T18:23:34.572Z,99943.50
2023-02-18T18:26:03.975Z,99937.91
2023-02-18T18:28:33.426Z,99947.82
2023-02-18T18:31:02.984Z,99948.56
2023-02-18T18:33:35.018Z,99950.61
2023-02-18T18:36:05.124Z,99949.61
2023-02-18T18:38:36.365Z,99944.48
2023-02-18T18:41:06.025Z,99945.84
2023-02-18T18:43:38.456Z,99943.45
2023-02-18T18:46:08.454Z,99941.52
2023-02-18T18:48:39.316Z,99936.88
2023-02-18T18:51:17.121Z,99939.16
2023-02-18T18:53:46.631Z,99940.42
2023-02-18T18:56:16.068Z,99940.49
2023-02-18T18:58:45.695Z,99940.80
2023-02-18T19:01:23.146Z,99939.04
2023-02-18T19:03:53.004Z,99941.05
2023-02-18T19:06:23.737Z,99942.45
2023-02-18T19:08:53.731Z,99943.32
2023-02-18T19:11:23.600Z,99944.06
2023-02-18T19:13:53.370Z,99941.91
2023-02-18T19:16:34.852Z,99941.73
2023-02-18T19:19:04.971Z,99943.94
2023-02-18T19:21:35.778Z,99942.59
2023-02-18T19:24:05.046Z,99943.26
2023-02-18T19:26:35.408Z,99939.95
2023-02-18T19:29:04.584Z,99939.79
2023-02-18T19:31:34.013Z,99940.28
2023-02-18T19:34:04.347Z,99942.14
2023-02-18T19:36:34.593Z,99940.52
2023-02-18T19:39:06.313Z,99945.14
2023-02-18T19:41:37.747Z,99945.85
2023-02-18T19:44:07.086Z,99948.54
2023-02-18T19:46:36.622Z,99948.64
2023-02-18T19:49:06.640Z,99948.82
2023-02-18T19:51:36.092Z,99944.19
2023-02-18T19:54:06.121Z,99944.96
2023-02-18T19:56:37.437Z,99948.05
2023-02-18T19:59:07.871Z,99947.34
2023-02-18T20:01:37.697Z,99948.38
2023-02-18T20:04:06.709Z,99949.80
2023-02-18T20:06:35.671Z,99950.65
2023-02-18T20:09:05.382Z,99951.77
2023-02-18T20:11:34.680Z,99946.98
2023-02-18T20:14:04.118Z,99946.69
2023-02-18T20:16:33.476Z,99944.48
2023-02-18T20:19:02.641Z,99944.19
2023-02-18T20:21:32.753Z,99941.95
2023-02-18T20:24:02.070Z,99942.73
2023-02-18T20:26:31.114Z,99944.06
2023-02-18T20:29:00.783Z,99941.92
2023-02-18T20:31:30.022Z,99942.95
2023-02-18T20:34:01.016Z,99948.34
2023-02-18T20:36:30.205Z,99946.27
2023-02-18T20:39:07.672Z,99948.78
2023-02-18T20:41:45.376Z,99943.89
2023-02-18T20:44:16.298Z,99943.52
2023-02-18T20:46:46.883Z,99940.19
2023-02-18T20:49:19.286Z,99940.39
2023-02-18T20:51:50.155Z,99941.64
2023-02-18T20:54:20.517Z,99942.77
2023-02-18T20:56:51.254Z,99935.60
2023-02-18T20:59:22.695Z,99935.02
2023-02-18T21:01:51.818Z,99935.56
2023-02-18T21:04:21.848Z,99935.10
2023-02-18T21:06:51.470Z,99931.64
2023-02-18T21:09:22.017Z,99934.14
2023-02-18T21:11:52.464Z,99931.61
2023-02-18T21:14:22.848Z,99932.61
2023-02-18T21:16:52.021Z,99933.03
2023-02-18T21:19:21.223Z,99932.86
2023-02-18T21:21:50.440Z,99930.44
2023-02-18T21:24:20.408Z,99931.25
2023-02-18T21:26:50.029Z,99929.60
2023-02-18T21:29:19.370Z,99933.41
2023-02-18T21:31:48.535Z,99934.16
2023-02-18T21:34:17.804Z,99932.09
2023-02-18T21:36:47.560Z,99928.48
2023-02-18T21:39:17.690Z,99928.27
2023-02-18T21:41:47.212Z,99929.27
2023-02-18T21:44:16.323Z,99923.80
2023-02-18T21:46:45.364Z,99923.77
2023-02-18T21:49:16.376Z,99925.73
2023-02-18T21:51:57.310Z,99929.48
2023-02-18T21:54:30.517Z,99931.71
2023-02-18T21:57:01.524Z,99930.19
2023-02-18T21:59:31.555Z,99929.89
2023-02-18T22:02:01.077Z,99925.15
2023-02-18T22:04:32.932Z,99923.70
2023-02-18T22:07:03.781Z,99926.92
2023-02-18T22:09:32.830Z,99928.77
2023-02-18T22:12:02.028Z,99929.60
2023-02-18T22:14:31.592Z,99926.40
2023-02-18T22:17:00.985Z,99923.16
2023-02-18T22:19:30.605Z,99923.82
2023-02-18T22:22:00.897Z,99921.88
2023-02-18T22:24:30.111Z,99921.59
2023-02-18T22:27:01.923Z,99922.13
2023-02-18T22:29:32.709Z,99917.83
2023-02-18T22:32:02.572Z,99920.30
2023-02-18T22:34:31.888Z,99924.33
2023-02-18T22:37:01.290Z,99924.92
2023-02-18T22:39:30.446Z,99922.85
2023-02-18T22:41:59.262Z,99922.36
2023-02-18T22:44:28.527Z,99922.86
2023-02-18T22:46:58.645Z,99920.69
2023-02-18T22:49:27.928Z,99920.35
2023-02-18T22:51:57.456Z,99917.71
2023-02-18T22:54:27.090Z,99914.86
2023-02-18T22:56:56.178Z,99920.95
2023-02-18T22:59:25.289Z,99921.17
2023-02-18T23:01:54.360Z,99919.15
2023-02-18T23:04:23.257Z,99916.20
2023-02-18T23:06:52.506Z,99915.60
2023-02-18T23:09:25.008Z,99916.96
2023-02-18T23:11:57.707Z,99917.18
2023-02-18T23:14:28.818Z,99914.55
2023-02-18T23:17:18.160Z,99914.03
2023-02-18T23:19:51.229Z,99914.05
2023-02-18T23:22:30.887Z,99911.70
2023-02-18T23:25:02.351Z,99909.12
2023-02-18T23:27:32.136Z,99909.59
2023-02-18T23:30:00.847Z,99911.48
2023-02-18T23:32:31.374Z,99912.42
2023-02-18T23:35:00.326Z,99910.44
2023-02-18T23:37:47.930Z,99909.07
2023-02-18T23:40:18.227Z,99910.09
2023-02-18T23:42:47.106Z,99911.35
2023-02-18T23:45:16.092Z,99909.76
2023-02-18T23:47:44.985Z,99909.86
2023-02-18T23:50:17.735Z,99907.91
2023-02-18T23:52:49.479Z,99905.51
2023-02-18T23:55:18.518Z,99905.16
2023-02-18T23:57:47.485Z,99906.35
